createdAt,value
2019-05-12T00:01:58.706Z,10.27
2019-05-12T00:04:28.532Z,9.37
2019-05-12T00:06:58.635Z,9.70
2019-05-12T00:09:28.560Z,10.33
2019-05-12T00:11:59.058Z,12.00
2019-05-12T00:14:29.060Z,10.83
2019-05-12T00:16:58.595Z,11.00
2019-05-12T00:19:28.633Z,11.00
2019-05-12T00:21:58.835Z,11.73
2019-05-12T00:24:28.867Z,11.53
2019-05-12T00:27:00.136Z,9.80
2019-05-12T00:29:30.063Z,9.50
2019-05-12T00:32:00.113Z,7.73
2019-05-12T00:34:29.559Z,5.40
2019-05-12T00:36:59.178Z,6.27
2019-05-12T00:39:28.798Z,5.77
2019-05-12T00:41:58.784Z,6.37
2019-05-12T00:44:28.623Z,6.53
2019-05-12T00:46:58.636Z,7.00
2019-05-12T00:49:29.000Z,7.10
2019-05-12T00:51:59.083Z,7.37
2019-05-12T00:54:28.916Z,6.87
2019-05-12T00:56:58.692Z,6.97
2019-05-12T00:59:28.626Z,5.87
2019-05-12T01:01:58.718Z,6.83
2019-05-12T01:04:29.298Z,6.27
2019-05-12T01:06:59.731Z,6.50
2019-05-12T01:09:29.920Z,6.10
2019-05-12T01:11:59.946Z,5.83
2019-05-12T01:14:30.178Z,5.60
2019-05-12T01:16:59.891Z,6.20
2019-05-12T01:19:30.021Z,5.60
2019-05-12T01:21:59.728Z,6.17
2019-05-12T01:24:29.667Z,5.77
2019-05-12T01:27:00.091Z,5.80
2019-05-12T01:29:30.365Z,5.87
2019-05-12T01:32:20.319Z,5.37
2019-05-12T01:34:50.244Z,5.13
2019-05-12T01:37:23.164Z,5.40
2019-05-12T01:39:54.113Z,5.27
2019-05-12T01:42:24.019Z,6.10
2019-05-12T01:44:54.110Z,6.30
2019-05-12T01:47:23.737Z,5.73
2019-05-12T01:49:54.844Z,5.83
2019-05-12T01:52:25.035Z,5.53
2019-05-12T01:54:55.185Z,5.37
2019-05-12T01:57:24.803Z,6.37
2019-05-12T01:59:54.770Z,6.30
2019-05-12T02:02:24.392Z,6.30
2019-05-12T02:05:02.110Z,6.13
2019-05-12T02:07:33.562Z,6.20
2019-05-12T02:10:04.238Z,6.40
2019-05-12T02:12:33.948Z,6.30
2019-05-12T02:15:07.999Z,6.80
2019-05-12T02:17:39.107Z,6.60
2019-05-12T02:20:09.813Z,6.33
2019-05-12T02:22:39.729Z,7.10
2019-05-12T02:25:09.283Z,6.20
2019-05-12T02:27:39.907Z,6.67
2019-05-12T02:30:11.284Z,7.33
2019-05-12T02:32:49.530Z,7.70
2019-05-12T02:35:15.895Z,8.77
2019-05-12T02:37:45.184Z,7.80
2019-05-12T02:40:16.621Z,8.03
2019-05-12T02:42:46.751Z,7.67
2019-05-12T02:45:17.154Z,7.10
2019-05-12T02:47:47.067Z,7.47
2019-05-12T02:50:19.889Z,7.50
2019-05-12T02:52:49.766Z,7.80
2019-05-12T02:55:19.371Z,7.23
2019-05-12T02:57:49.054Z,7.23
2019-05-12T03:00:18.685Z,8.17
2019-05-12T03:02:50.828Z,7.97
2019-05-12T03:05:20.560Z,8.10
2019-05-12T03:07:50.465Z,8.83
2019-05-12T03:10:20.501Z,8.73
2019-05-12T03:12:50.092Z,9.07
2019-05-12T03:15:19.725Z,9.97
2019-05-12T03:17:49.896Z,9.43
2019-05-12T03:20:24.178Z,10.07
2019-05-12T03:22:55.434Z,9.60
2019-05-12T03:25:29.702Z,10.27
2019-05-12T03:27:55.631Z,9.53
2019-05-12T03:30:29.195Z,8.80
2019-05-12T03:32:58.278Z,8.63
2019-05-12T03:35:33.345Z,8.77
2019-05-12T03:37:59.051Z,8.40
2019-05-12T03:40:29.486Z,8.20
2019-05-12T03:42:59.008Z,7.77
2019-05-12T03:45:28.523Z,7.43
2019-05-12T03:47:58.045Z,7.60
2019-05-12T03:50:29.167Z,7.67
2019-05-12T03:52:58.905Z,8.40
2019-05-12T03:55:35.883Z,7.93
2019-05-12T03:58:00.070Z,7.93
2019-05-12T04:00:29.517Z,7.97
2019-05-12T04:02:58.973Z,7.70
2019-05-12T04:05:28.851Z,7.27
2019-05-12T04:07:58.856Z,7.00
2019-05-12T04:10:28.460Z,7.23
2019-05-12T04:12:58.291Z,7.53
2019-05-12T04:15:27.895Z,7.10
2019-05-12T04:17:57.807Z,7.43
2019-05-12T04:20:27.436Z,7.03
2019-05-12T04:22:57.298Z,7.10
2019-05-12T04:25:44.812Z,7.20
2019-05-12T04:27:58.049Z,7.30
2019-05-12T04:30:27.495Z,7.30
2019-05-12T04:32:57.497Z,7.23
2019-05-12T04:35:26.952Z,7.00
2019-05-12T04:37:56.556Z,8.00
2019-05-12T04:40:26.159Z,8.17
2019-05-12T04:42:55.678Z,7.53
2019-05-12T04:45:25.749Z,7.87
2019-05-12T04:47:55.426Z,7.30
2019-05-12T04:50:24.918Z,8.00
2019-05-12T04:52:55.030Z,7.20
2019-05-12T04:55:25.726Z,7.13
2019-05-12T04:57:55.423Z,6.20
2019-05-12T05:00:25.951Z,6.50
2019-05-12T05:02:55.545Z,6.50
2019-05-12T05:05:25.494Z,6.43
2019-05-12T05:07:55.497Z,6.80
2019-05-12T05:10:25.234Z,6.57
2019-05-12T05:12:54.768Z,7.07
2019-05-12T05:15:25.125Z,6.53
2019-05-12T05:17:54.770Z,5.93
2019-05-12T05:20:24.488Z,6.20
2019-05-12T05:22:54.394Z,5.67
2019-05-12T05:25:23.908Z,5.63
2019-05-12T05:27:53.543Z,5.40
2019-05-12T05:30:24.340Z,5.40
2019-05-12T05:32:54.021Z,5.70
2019-05-12T05:35:23.923Z,5.23
2019-05-12T05:37:54.072Z,5.20
2019-05-12T05:40:25.969Z,5.50
2019-05-12T05:42:55.072Z,4.80
2019-05-12T05:45:26.519Z,5.47
2019-05-12T05:47:59.578Z,5.90
2019-05-12T05:50:29.564Z,5.67
2019-05-12T05:52:58.415Z,5.27
2019-05-12T05:55:28.116Z,5.37
2019-05-12T05:57:59.874Z,5.30
2019-05-12T06:00:29.077Z,5.90
2019-05-12T06:02:58.723Z,6.00
2019-05-12T06:05:30.876Z,5.77
2019-05-12T06:07:59.908Z,5.80
2019-05-12T06:10:36.040Z,5.93
2019-05-12T06:13:00.954Z,6.10
2019-05-12T06:15:35.783Z,5.70
2019-05-12T06:18:03.620Z,6.63
2019-05-12T06:20:37.648Z,7.00
2019-05-12T06:23:05.016Z,6.57
2019-05-12T06:25:46.362Z,6.73
2019-05-12T06:28:08.957Z,7.30
2019-05-12T06:30:44.259Z,6.93
2019-05-12T06:33:10.416Z,6.77
2019-05-12T06:35:42.354Z,6.97
2019-05-12T06:38:13.418Z,6.90
2019-05-12T06:40:45.285Z,7.60
2019-05-12T06:43:15.331Z,8.20
2019-05-12T06:45:45.853Z,7.47
2019-05-12T06:48:19.337Z,8.57
2019-05-12T06:50:46.629Z,8.57
2019-05-12T06:53:20.110Z,7.93
2019-05-12T06:55:47.475Z,9.47
2019-05-12T06:58:26.293Z,8.23
2019-05-12T07:00:48.752Z,8.30
2019-05-12T07:03:19.522Z,6.90
2019-05-12T07:05:49.703Z,7.63
2019-05-12T07:08:26.574Z,6.67
2019-05-12T07:10:57.680Z,6.53
2019-05-12T07:13:24.896Z,6.33
2019-05-12T07:15:54.387Z,5.73
2019-05-12T07:18:32.262Z,6.20
2019-05-12T07:20:56.155Z,5.77
2019-05-12T07:23:30.196Z,5.00
2019-05-12T07:25:57.514Z,4.80
2019-05-12T07:28:30.393Z,5.70
2019-05-12T07:30:58.648Z,6.13
2019-05-12T07:33:32.798Z,5.17
2019-05-12T07:36:01.327Z,5.27
2019-05-12T07:38:33.827Z,5.80
2019-05-12T07:41:06.769Z,5.80
2019-05-12T07:43:34.212Z,5.90
2019-05-12T07:46:07.017Z,5.63
2019-05-12T07:48:40.338Z,5.33
2019-05-12T07:51:06.758Z,5.47
2019-05-12T07:53:36.270Z,5.40
2019-05-12T07:56:05.809Z,5.03
2019-05-12T07:58:35.439Z,4.80
2019-05-12T08:01:07.902Z,5.83
2019-05-12T08:03:36.238Z,5.17
2019-05-12T08:06:06.054Z,5.10
2019-05-12T08:08:35.505Z,4.83
2019-05-12T08:11:05.246Z,4.90
2019-05-12T08:13:37.839Z,5.03
2019-05-12T08:16:05.985Z,4.43
2019-05-12T08:18:40.049Z,4.93
2019-05-12T08:21:07.045Z,5.27
2019-05-12T08:23:38.069Z,4.47
2019-05-12T08:26:12.263Z,4.70
2019-05-12T08:28:40.528Z,4.40
2019-05-12T08:31:10.099Z,4.30
2019-05-12T08:33:40.089Z,4.83
2019-05-12T08:36:11.662Z,4.37
2019-05-12T08:38:41.569Z,4.47
2019-05-12T08:41:11.197Z,4.57
2019-05-12T08:43:47.117Z,4.63
2019-05-12T08:46:15.502Z,3.90
2019-05-12T08:48:44.587Z,4.03
2019-05-12T08:51:19.819Z,4.07
2019-05-12T08:53:45.801Z,4.10
2019-05-12T08:56:19.786Z,4.10
2019-05-12T08:58:51.088Z,3.63
2019-05-12T09:01:20.234Z,3.37
2019-05-12T09:03:49.653Z,3.63
2019-05-12T09:06:19.823Z,3.50
2019-05-12T09:08:49.736Z,3.80
2019-05-12T09:11:19.221Z,4.13
2019-05-12T09:13:52.668Z,3.87
2019-05-12T09:16:19.920Z,3.97
2019-05-12T09:18:49.355Z,3.70
2019-05-12T09:21:25.304Z,3.53
2019-05-12T09:23:53.226Z,3.17
2019-05-12T09:26:24.998Z,3.50
2019-05-12T09:28:54.299Z,3.83
2019-05-12T09:31:25.375Z,3.30
2019-05-12T09:33:55.421Z,3.90
2019-05-12T09:36:25.059Z,3.50
2019-05-12T09:39:01.429Z,3.47
2019-05-12T09:41:25.774Z,3.37
2019-05-12T09:43:55.308Z,3.80
2019-05-12T09:46:28.513Z,3.10
2019-05-12T09:48:56.680Z,3.70
2019-05-12T09:51:26.960Z,3.90
2019-05-12T09:53:56.473Z,3.40
2019-05-12T09:56:26.367Z,2.80
2019-05-12T09:59:01.665Z,3.40
2019-05-12T10:01:29.230Z,3.07
2019-05-12T10:03:58.670Z,3.10
2019-05-12T10:06:28.207Z,3.07
2019-05-12T10:08:57.854Z,3.37
2019-05-12T10:11:27.566Z,2.70
2019-05-12T10:14:00.282Z,4.53
2019-05-12T10:16:28.331Z,2.90
2019-05-12T10:18:57.885Z,2.73
2019-05-12T10:21:27.337Z,2.20
2019-05-12T10:24:00.505Z,2.43
2019-05-12T10:26:28.435Z,2.57
2019-05-12T10:28:59.819Z,2.37
2019-05-12T10:31:35.605Z,2.20
2019-05-12T10:34:19.725Z,2.57
2019-05-12T10:36:51.126Z,2.50
2019-05-12T10:39:24.496Z,2.67
2019-05-12T10:41:54.813Z,2.73
2019-05-12T10:44:34.108Z,2.47
2019-05-12T10:46:57.901Z,2.80
2019-05-12T10:49:27.499Z,2.60
2019-05-12T10:51:57.903Z,2.50
2019-05-12T10:54:27.519Z,2.37
2019-05-12T10:56:57.842Z,2.43
2019-05-12T10:59:32.957Z,2.43
2019-05-12T11:01:58.708Z,2.67
2019-05-12T11:04:35.803Z,2.40
2019-05-12T11:06:59.663Z,2.50
2019-05-12T11:09:31.618Z,2.20
2019-05-12T11:12:00.629Z,2.30
2019-05-12T11:14:30.715Z,2.10
2019-05-12T11:17:07.901Z,1.90
2019-05-12T11:19:33.895Z,2.10
2019-05-12T11:22:03.753Z,1.87
2019-05-12T11:24:33.804Z,2.52
2019-05-12T11:27:04.071Z,2.33
2019-05-12T11:29:45.690Z,2.27
2019-05-12T11:32:05.039Z,2.00
2019-05-12T11:34:34.953Z,2.30
2019-05-12T11:37:04.410Z,2.37
2019-05-12T11:39:36.784Z,2.30
2019-05-12T11:42:05.355Z,1.87
2019-05-12T11:44:34.951Z,2.25
2019-05-12T11:47:04.835Z,2.25
2019-05-12T11:49:34.362Z,2.15
2019-05-12T11:52:07.474Z,1.77
2019-05-12T11:54:35.764Z,1.82
2019-05-12T11:57:05.284Z,1.80
2019-05-12T11:59:34.877Z,1.57
2019-05-12T12:02:04.467Z,2.47
2019-05-12T12:04:37.953Z,2.30
2019-05-12T12:07:07.576Z,1.83
2019-05-12T12:09:37.052Z,2.50
2019-05-12T12:12:07.441Z,1.90
2019-05-12T12:14:40.162Z,1.90
2019-05-12T12:17:08.163Z,2.25
2019-05-12T12:19:43.895Z,1.70
2019-05-12T12:22:09.448Z,1.67
2019-05-12T12:24:38.914Z,1.72
2019-05-12T12:27:08.368Z,1.80
2019-05-12T12:29:37.824Z,1.50
2019-05-12T12:32:09.821Z,1.72
2019-05-12T12:34:38.815Z,1.67
2019-05-12T12:37:08.276Z,2.20
2019-05-12T12:39:37.908Z,1.60
2019-05-12T12:42:07.618Z,1.70
2019-05-12T12:44:37.257Z,1.92
2019-05-12T12:47:07.060Z,1.80
2019-05-12T12:49:40.074Z,1.77
2019-05-12T12:52:08.253Z,1.80
2019-05-12T12:54:38.302Z,1.90
2019-05-12T12:57:09.976Z,1.93
2019-05-12T12:59:45.417Z,1.70
2019-05-12T13:02:10.695Z,2.30
2019-05-12T13:04:48.387Z,1.93
2019-05-12T13:07:13.583Z,1.40
2019-05-12T13:09:44.117Z,1.53
2019-05-12T13:12:18.790Z,1.60
2019-05-12T13:14:44.974Z,2.33
2019-05-12T13:17:14.834Z,1.67
2019-05-12T13:19:48.795Z,1.65
2019-05-12T13:22:18.917Z,1.42
2019-05-12T13:24:47.224Z,1.50
2019-05-12T13:27:19.204Z,1.70
2019-05-12T13:29:48.031Z,1.52
2019-05-12T13:32:17.502Z,1.32
2019-05-12T13:34:47.413Z,1.55
2019-05-12T13:37:19.415Z,1.60
2019-05-12T13:39:56.853Z,1.65
2019-05-12T13:42:19.604Z,1.37
2019-05-12T13:44:49.350Z,1.40
2019-05-12T13:47:19.132Z,1.27
2019-05-12T13:49:48.946Z,1.23
2019-05-12T13:52:20.131Z,1.52
2019-05-12T13:54:50.029Z,1.37
2019-05-12T13:57:19.487Z,1.43
2019-05-12T13:59:53.714Z,1.67
2019-05-12T14:02:22.117Z,1.40
2019-05-12T14:04:53.575Z,1.50
2019-05-12T14:07:23.691Z,1.20
2019-05-12T14:09:53.307Z,1.43
2019-05-12T14:12:22.933Z,1.27
2019-05-12T14:14:52.386Z,2.10
2019-05-12T14:17:23.518Z,1.47
2019-05-12T14:19:53.352Z,1.17
2019-05-12T14:22:26.387Z,1.30
2019-05-12T14:24:54.870Z,1.55
2019-05-12T14:27:28.617Z,1.40
2019-05-12T14:30:00.796Z,1.02
2019-05-12T14:32:27.199Z,1.60
2019-05-12T14:35:00.557Z,1.30
2019-05-12T14:37:28.371Z,1.62
2019-05-12T14:39:58.351Z,1.20
2019-05-12T14:42:34.832Z,1.50
2019-05-12T14:44:59.410Z,1.20
2019-05-12T14:47:30.260Z,1.47
2019-05-12T14:49:59.881Z,1.50
2019-05-12T14:52:30.363Z,1.50
2019-05-12T14:54:59.901Z,1.37
2019-05-12T14:57:34.723Z,1.10
2019-05-12T15:00:00.642Z,1.60
2019-05-12T15:02:30.520Z,1.47
2019-05-12T15:05:05.748Z,1.40
2019-05-12T15:07:31.807Z,1.40
2019-05-12T15:10:03.701Z,1.50
2019-05-12T15:12:33.546Z,1.57
2019-05-12T15:15:03.824Z,1.43
2019-05-12T15:17:33.827Z,2.10
2019-05-12T15:20:06.595Z,1.40
2019-05-12T15:22:35.953Z,1.43
2019-05-12T15:25:06.710Z,1.40
2019-05-12T15:27:44.369Z,1.60
2019-05-12T15:30:20.282Z,1.63
2019-05-12T15:32:40.457Z,1.80
2019-05-12T15:35:10.393Z,1.80
2019-05-12T15:37:39.944Z,1.63
2019-05-12T15:40:09.817Z,1.40
2019-05-12T15:42:39.277Z,1.40
2019-05-12T15:45:12.721Z,1.60
2019-05-12T15:47:40.894Z,1.40
2019-05-12T15:50:10.440Z,1.60
2019-05-12T15:52:42.384Z,1.60
2019-05-12T15:55:13.653Z,1.80
2019-05-12T15:57:44.046Z,1.40
2019-05-12T16:00:16.863Z,1.20
2019-05-12T16:02:45.908Z,1.37
2019-05-12T16:05:19.954Z,2.17
2019-05-12T16:07:50.470Z,1.57
2019-05-12T16:10:20.073Z,2.00
2019-05-12T16:12:49.532Z,1.70
2019-05-12T16:15:20.186Z,2.13
2019-05-12T16:17:49.976Z,2.27
2019-05-12T16:20:19.781Z,1.80
2019-05-12T16:22:49.676Z,1.53
2019-05-12T16:25:20.849Z,1.73
2019-05-12T16:27:51.798Z,1.80
2019-05-12T16:30:25.998Z,1.60
2019-05-12T16:32:55.051Z,1.60
2019-05-12T16:35:26.445Z,1.90
2019-05-12T16:37:55.990Z,1.53
2019-05-12T16:40:25.529Z,2.50
2019-05-12T16:42:59.607Z,1.83
2019-05-12T16:45:26.573Z,3.00
2019-05-12T16:47:59.345Z,2.10
2019-05-12T16:50:28.177Z,2.17
2019-05-12T16:52:57.802Z,1.93
2019-05-12T16:55:27.322Z,1.80
2019-05-12T16:57:56.900Z,3.63
2019-05-12T17:00:26.676Z,2.87
2019-05-12T17:02:58.048Z,2.80
2019-05-12T17:05:27.626Z,2.93
2019-05-12T17:07:57.506Z,2.33
2019-05-12T17:10:27.116Z,2.37
2019-05-12T17:12:57.281Z,3.37
2019-05-12T17:15:26.925Z,2.60
2019-05-12T17:18:01.320Z,5.17
2019-05-12T17:20:28.075Z,3.93
2019-05-12T17:23:00.192Z,1.60
2019-05-12T17:25:29.065Z,1.67
2019-05-12T17:28:03.874Z,1.90
2019-05-12T17:30:30.576Z,1.67
2019-05-12T17:33:04.296Z,3.17
2019-05-12T17:35:34.980Z,2.00
2019-05-12T17:38:04.560Z,1.93
2019-05-12T17:40:34.197Z,2.30
2019-05-12T17:43:09.995Z,2.10
2019-05-12T17:45:35.407Z,2.00
2019-05-12T17:48:07.541Z,1.80
2019-05-12T17:50:40.354Z,1.60
2019-05-12T17:53:07.711Z,1.80
2019-05-12T17:55:44.356Z,1.90
2019-05-12T17:58:08.994Z,2.07
2019-05-12T18:00:41.381Z,2.10
2019-05-12T18:03:18.154Z,1.87
2019-05-12T18:05:42.463Z,1.80
2019-05-12T18:08:14.264Z,1.57
2019-05-12T18:10:43.806Z,1.60
2019-05-12T18:13:17.525Z,1.83
2019-05-12T18:15:44.644Z,1.73
2019-05-12T18:18:17.270Z,1.80
2019-05-12T18:20:45.528Z,2.13
2019-05-12T18:23:19.713Z,1.73
2019-05-12T18:25:46.653Z,2.00
2019-05-12T18:28:21.515Z,1.80
2019-05-12T18:30:48.206Z,1.50
2019-05-12T18:33:29.629Z,1.87
2019-05-12T18:35:48.901Z,1.60
2019-05-12T18:38:24.066Z,1.63
2019-05-12T18:40:49.671Z,2.10
2019-05-12T18:43:19.121Z,1.80
2019-05-12T18:45:54.984Z,1.70
2019-05-12T18:48:22.298Z,2.07
2019-05-12T18:50:51.100Z,2.10
2019-05-12T18:53:27.657Z,2.53
2019-05-12T18:55:53.960Z,2.90
2019-05-12T18:58:30.854Z,5.13
2019-05-12T19:00:54.755Z,3.17
2019-05-12T19:03:25.595Z,2.83
2019-05-12T19:05:58.136Z,2.13
2019-05-12T19:08:26.603Z,1.80
2019-05-12T19:10:56.392Z,1.70
2019-05-12T19:13:26.284Z,1.90
2019-05-12T19:16:02.622Z,1.70
2019-05-12T19:18:32.323Z,1.60
2019-05-12T19:20:58.358Z,2.00
2019-05-12T19:23:34.989Z,1.77
2019-05-12T19:25:59.808Z,1.63
2019-05-12T19:28:29.336Z,1.77
2019-05-12T19:31:00.921Z,1.80
2019-05-12T19:33:30.345Z,1.60
2019-05-12T19:36:04.316Z,1.73
2019-05-12T19:38:48.574Z,2.17
2019-05-12T19:41:38.107Z,1.57
2019-05-12T19:44:07.483Z,1.70
2019-05-12T19:46:39.844Z,2.83
2019-05-12T19:49:07.326Z,1.80
2019-05-12T19:51:36.254Z,1.60
2019-05-12T19:54:27.538Z,1.53
2019-05-12T19:56:53.614Z,1.70
2019-05-12T19:59:23.617Z,1.50
2019-05-12T20:01:53.723Z,1.47
2019-05-12T20:04:33.417Z,1.87
2019-05-12T20:06:54.637Z,1.50
2019-05-12T20:09:24.393Z,1.47
2019-05-12T20:11:53.987Z,1.50
2019-05-12T20:14:24.092Z,1.63
2019-05-12T20:16:54.395Z,1.60
2019-05-12T20:19:25.459Z,1.40
2019-05-12T20:21:55.235Z,1.30
2019-05-12T20:24:24.703Z,1.20
2019-05-12T20:26:54.315Z,2.30
2019-05-12T20:29:32.745Z,2.27
2019-05-12T20:31:55.117Z,2.00
2019-05-12T20:34:24.770Z,1.80
2019-05-12T20:36:59.159Z,1.50
2019-05-12T20:39:25.560Z,1.40
2019-05-12T20:42:00.698Z,1.40
2019-05-12T20:44:26.449Z,1.30
2019-05-12T20:47:01.355Z,1.33
2019-05-12T20:49:27.175Z,1.60
2019-05-12T20:52:04.035Z,1.63
2019-05-12T20:54:28.250Z,1.67
2019-05-12T20:57:02.300Z,1.60
2019-05-12T20:59:29.546Z,2.03
2019-05-12T21:01:59.095Z,1.80
2019-05-12T21:04:31.278Z,1.83
2019-05-12T21:06:59.994Z,2.03
2019-05-12T21:09:29.451Z,1.90
2019-05-12T21:11:58.913Z,1.80
2019-05-12T21:14:28.721Z,1.70
2019-05-12T21:16:58.175Z,1.57
2019-05-12T21:19:29.272Z,1.50
2019-05-12T21:21:59.299Z,1.40
2019-05-12T21:24:29.553Z,1.60
2019-05-12T21:26:59.990Z,1.50
2019-05-12T21:29:30.099Z,1.50
2019-05-12T21:32:03.070Z,1.87
2019-05-12T21:34:31.217Z,2.00
2019-05-12T21:37:04.642Z,1.83
2019-05-12T21:39:33.588Z,1.70
2019-05-12T21:42:03.951Z,1.90
2019-05-12T21:44:33.892Z,1.87
2019-05-12T21:47:10.001Z,1.90
2019-05-12T21:49:35.012Z,1.37
2019-05-12T21:52:06.545Z,1.50
2019-05-12T21:54:39.394Z,1.40
2019-05-12T21:57:07.319Z,1.70
2019-05-12T21:59:39.637Z,1.60
2019-05-12T22:02:07.993Z,1.60
2019-05-12T22:04:41.214Z,1.30
2019-05-12T22:07:08.937Z,1.50
2019-05-12T22:09:41.447Z,1.60
2019-05-12T22:12:10.194Z,1.63
2019-05-12T22:14:40.979Z,1.20
2019-05-12T22:17:10.792Z,1.47
2019-05-12T22:19:40.245Z,1.50
2019-05-12T22:22:09.702Z,1.20
2019-05-12T22:24:39.409Z,1.30
2019-05-12T22:27:16.048Z,1.20
2019-05-12T22:29:40.002Z,1.60
2019-05-12T22:32:09.455Z,1.80
2019-05-12T22:34:42.004Z,1.17
2019-05-12T22:37:10.662Z,1.60
2019-05-12T22:39:40.109Z,1.50
2019-05-12T22:42:11.643Z,1.70
2019-05-12T22:44:40.875Z,1.70
2019-05-12T22:47:13.651Z,1.30
2019-05-12T22:49:44.235Z,1.40
2019-05-12T22:52:13.693Z,1.67
2019-05-12T22:54:46.982Z,1.40
2019-05-12T22:57:14.630Z,1.60
2019-05-12T22:59:44.862Z,1.50
2019-05-12T23:02:16.042Z,1.57
2019-05-12T23:04:45.653Z,1.67
2019-05-12T23:07:19.181Z,1.80
2019-05-12T23:09:46.260Z,1.57
2019-05-12T23:12:20.042Z,1.60
2019-05-12T23:14:47.514Z,1.60
2019-05-12T23:17:16.960Z,1.50
2019-05-12T23:19:51.630Z,1.57
2019-05-12T23:22:17.560Z,1.60
2019-05-12T23:24:47.019Z,1.40
2019-05-12T23:27:18.757Z,1.20
2019-05-12T23:29:48.008Z,1.20
2019-05-12T23:32:17.939Z,1.40
2019-05-12T23:34:56.509Z,1.70
2019-05-12T23:37:18.632Z,1.77
2019-05-12T23:39:48.083Z,1.30
2019-05-12T23:42:17.527Z,1.77
2019-05-12T23:44:47.225Z,1.40
2019-05-12T23:47:16.667Z,1.37
2019-05-12T23:49:46.446Z,1.63
2019-05-12T23:52:16.249Z,1.50
2019-05-12T23:54:45.701Z,1.50
2019-05-12T23:57:15.734Z,1.50
2019-05-12T23:59:45.370Z,1.37
